Time;durP1;ratioP1;P1;durP2;ratioP2;P2;SDS_P1;SDS_P2;PMS_P1;PMS_P2;Temp;Humidity;BMP_temperature;BMP_pressure;BME280_temperature;BME280_humidity;BME280_pressure;Samples;Min_cycle;Max_cycle;Signal;HPM_P1;HPM_P2
2022/11/03 00:02:18;;;;;;;6.78;2.08;;;11.80;99.90;;;;;;5056290;28;20383;-80
2022/11/03 00:04:44;;;;;;;9.45;1.83;;;11.80;99.90;;;;;;5056529;28;20013;-79
2022/11/03 00:07:11;;;;;;;12.10;2.35;;;11.90;99.90;;;;;;5056279;28;20020;-80
2022/11/03 00:09:38;;;;;;;10.18;2.15;;;11.90;99.90;;;;;;5055379;28;20056;-79
2022/11/03 00:12:07;;;;;;;7.55;1.98;;;11.90;99.90;;;;;;5055367;28;20376;-79
2022/11/03 00:14:40;;;;;;;7.22;1.60;;;11.90;99.90;;;;;;5075382;28;20443;-80
2022/11/03 00:17:11;;;;;;;6.65;1.77;;;11.90;99.90;;;;;;5062492;28;20051;-79
2022/11/03 00:19:41;;;;;;;8.55;2.08;;;11.90;99.90;;;;;;5069197;28;20489;-80
2022/11/03 00:22:07;;;;;;;12.10;2.30;;;11.90;99.90;;;;;;5082978;28;20095;-79
2022/11/03 00:24:35;;;;;;;12.65;2.50;;;11.90;99.90;;;;;;5067447;28;20109;-80
2022/11/03 00:27:06;;;;;;;9.77;2.00;;;11.90;99.90;;;;;;5069961;28;20016;-79
2022/11/03 00:29:36;;;;;;;9.02;1.98;;;11.90;99.90;;;;;;5061246;28;20229;-77
2022/11/03 00:32:10;;;;;;;7.70;1.83;;;11.90;99.90;;;;;;5094204;28;20027;-80
2022/11/03 00:34:36;;;;;;;10.90;2.30;;;11.90;99.90;;;;;;5080988;28;20028;-79
2022/11/03 00:37:09;;;;;;;10.90;2.50;;;11.90;99.90;;;;;;5078267;28;20105;-79
2022/11/03 00:39:41;;;;;;;7.03;1.90;;;11.90;99.90;;;;;;5078995;28;20016;-79
2022/11/03 00:42:16;;;;;;;9.00;2.25;;;11.90;99.90;;;;;;5059306;28;20129;-79
2022/11/03 00:44:47;;;;;;;10.75;2.67;;;11.90;99.90;;;;;;5055986;28;20039;-79
2022/11/03 00:47:24;;;;;;;8.23;2.20;;;11.90;99.90;;;;;;5073330;28;20052;-79
2022/11/03 00:49:52;;;;;;;11.32;2.60;;;11.90;99.90;;;;;;5064929;28;20113;-80
2022/11/03 00:52:28;;;;;;;10.10;2.22;;;11.90;99.90;;;;;;5062639;28;20032;-79
2022/11/03 00:54:57;;;;;;;10.18;1.95;;;11.90;99.90;;;;;;5075645;28;20460;-79
2022/11/03 00:57:42;;;;;;;10.07;2.35;;;11.90;99.90;;;;;;5057113;28;20392;-79
2022/11/03 01:00:19;;;;;;;7.53;1.65;;;12.00;99.90;;;;;;5055561;28;20028;-79
2022/11/03 01:02:47;;;;;;;10.13;2.13;;;12.00;99.90;;;;;;5073813;28;20103;-79
2022/11/03 01:08:04;;;;;;;8.13;2.05;;;11.90;99.90;;;;;;5073871;28;20039;-78
2022/11/03 01:10:29;;;;;;;6.10;1.70;;;11.90;99.90;;;;;;5057658;28;20028;-79
2022/11/03 01:13:00;;;;;;;6.55;1.70;;;11.90;99.90;;;;;;5076022;28;20047;-79
2022/11/03 01:15:26;;;;;;;11.20;2.28;;;11.90;99.90;;;;;;5075426;28;20100;-79
2022/11/03 01:18:08;;;;;;;7.10;2.00;;;11.90;99.90;;;;;;5079184;28;20029;-80
2022/11/03 01:20:40;;;;;;;5.30;1.50;;;11.90;99.90;;;;;;5074779;28;20037;-79
2022/11/03 01:23:09;;;;;;;9.63;2.00;;;11.90;99.90;;;;;;5056059;28;20153;-79
2022/11/03 01:25:45;;;;;;;9.15;1.77;;;11.90;99.90;;;;;;5069146;28;20039;-79
2022/11/03 01:28:19;;;;;;;9.82;1.90;;;11.80;99.90;;;;;;5039815;28;20108;-80
2022/11/03 01:30:45;;;;;;;10.48;1.55;;;11.80;99.90;;;;;;5078268;28;20103;-79
2022/11/03 01:33:14;;;;;;;4.78;1.45;;;11.80;99.90;;;;;;5066164;28;20052;-80
2022/11/03 01:35:45;;;;;;;11.50;2.83;;;11.80;99.90;;;;;;5069225;28;20389;-79
2022/11/03 01:38:14;;;;;;;9.68;1.80;;;11.90;99.90;;;;;;5050991;28;20047;-80
2022/11/03 01:40:43;;;;;;;11.98;2.47;;;11.80;99.90;;;;;;5075005;28;20016;-79
2022/11/03 01:43:24;;;;;;;7.43;1.70;;;11.80;99.90;;;;;;5059839;28;20039;-79
2022/11/03 01:46:15;;;;;;;9.75;1.92;;;11.80;99.90;;;;;;5059392;28;20021;-79
2022/11/03 01:48:55;;;;;;;8.70;2.30;;;11.90;99.90;;;;;;5055839;28;20191;-80
2022/11/03 01:51:26;;;;;;;6.55;1.67;;;11.80;99.90;;;;;;5069320;28;20028;-79
2022/11/03 01:53:58;;;;;;;7.05;1.67;;;11.80;99.90;;;;;;5069288;28;20053;-80
2022/11/03 01:56:28;;;;;;;13.13;2.25;;;11.90;99.90;;;;;;5068600;28;20040;-79
2022/11/03 01:58:57;;;;;;;8.73;2.05;;;11.80;99.90;;;;;;5057205;28;20056;-79
2022/11/03 02:01:27;;;;;;;10.57;2.63;;;11.90;99.90;;;;;;5077280;28;20039;-79
2022/11/03 02:04:04;;;;;;;10.38;2.13;;;11.80;99.90;;;;;;5074842;28;20024;-79
2022/11/03 02:06:30;;;;;;;9.88;1.95;;;11.80;99.90;;;;;;5059481;28;20035;-79
2022/11/03 02:09:10;;;;;;;11.70;1.60;;;11.80;99.90;;;;;;5074850;28;20464;-79
2022/11/03 02:14:26;;;;;;;10.05;2.33;;;11.80;99.90;;;;;;5056608;28;20075;-79
2022/11/03 02:17:01;;;;;;;7.30;1.80;;;11.80;99.90;;;;;;5038434;28;20025;-79
2022/11/03 02:19:41;;;;;;;10.50;2.22;;;11.70;99.90;;;;;;5065265;28;20033;-78
2022/11/03 02:22:32;;;;;;;7.65;2.00;;;11.80;99.90;;;;;;5056788;28;20029;-79
2022/11/03 02:25:28;;;;;;;10.75;2.63;;;11.70;99.90;;;;;;5054931;28;20025;-80
2022/11/03 02:28:02;;;;;;;7.60;1.75;;;11.70;99.90;;;;;;5068672;28;20031;-78
2022/11/03 02:31:04;;;;;;;9.20;1.73;;;11.70;99.90;;;;;;5056811;28;20028;-79
2022/11/03 02:33:59;;;;;;;9.60;2.05;;;11.60;99.90;;;;;;5009223;28;20025;-80
2022/11/03 02:36:50;;;;;;;9.75;2.03;;;11.60;99.90;;;;;;5068375;28;20483;-80
2022/11/03 02:39:35;;;;;;;5.78;1.20;;;11.60;99.90;;;;;;5055798;28;20051;-79
2022/11/03 02:42:06;;;;;;;4.25;1.08;;;11.60;99.90;;;;;;5054685;28;20556;-80
2022/11/03 02:44:36;;;;;;;3.30;1.40;;;11.60;99.90;;;;;;5068754;28;20365;-80
2022/11/03 02:47:20;;;;;;;7.15;1.60;;;11.50;99.90;;;;;;5054411;28;20053;-79
2022/11/03 02:49:52;;;;;;;14.10;2.88;;;11.50;99.90;;;;;;5061497;28;20029;-79
2022/11/03 02:52:45;;;;;;;7.85;1.65;;;11.50;99.90;;;;;;5065693;28;20100;-80
2022/11/03 02:55:16;;;;;;;6.23;1.37;;;11.50;99.90;;;;;;5055464;28;20385;-79
2022/11/03 02:58:25;;;;;;;4.00;1.13;;;11.40;99.90;;;;;;5068523;28;20051;-80
2022/11/03 03:01:13;;;;;;;6.40;1.55;;;11.40;99.90;;;;;;5052668;28;20512;-79
2022/11/03 03:03:53;;;;;;;7.55;1.70;;;11.30;99.90;;;;;;5055188;28;20029;-79
2022/11/03 03:06:35;;;;;;;9.63;1.92;;;11.30;99.90;;;;;;5072886;28;20063;-78
2022/11/03 03:09:06;;;;;;;7.30;1.50;;;11.30;99.90;;;;;;5065067;28;20094;-79
2022/11/03 03:11:37;;;;;;;9.77;1.65;;;11.30;99.90;;;;;;5055797;28;20013;-79
2022/11/03 03:14:18;;;;;;;6.80;1.60;;;11.30;99.90;;;;;;5056507;28;20013;-78
2022/11/03 03:17:05;;;;;;;7.25;1.58;;;11.30;99.90;;;;;;5068703;28;20062;-79
2022/11/03 03:20:00;;;;;;;5.93;1.52;;;11.30;99.90;;;;;;5055467;28;20167;-80
2022/11/03 03:22:46;;;;;;;6.70;1.52;;;11.20;99.90;;;;;;5055327;28;20074;-79
2022/11/03 03:25:34;;;;;;;7.68;1.80;;;11.20;99.90;;;;;;5054747;28;20029;-79
2022/11/03 03:28:32;;;;;;;9.25;1.75;;;11.20;99.90;;;;;;5055687;28;20051;-79
2022/11/03 03:31:04;;;;;;;8.75;2.03;;;11.20;99.90;;;;;;5051666;28;20035;-79
2022/11/03 03:33:34;;;;;;;5.37;1.67;;;11.20;99.90;;;;;;5054383;28;20082;-79
2022/11/03 03:36:03;;;;;;;6.63;1.42;;;11.20;99.90;;;;;;5067360;28;20028;-80
2022/11/03 03:38:39;;;;;;;8.82;2.10;;;11.20;99.90;;;;;;5056232;28;20465;-79
2022/11/03 03:41:07;;;;;;;8.00;1.65;;;11.20;99.90;;;;;;5053637;28;20025;-80
2022/11/03 03:43:36;;;;;;;8.35;1.80;;;11.10;99.90;;;;;;5062088;28;20036;-79
2022/11/03 03:46:29;;;;;;;6.60;1.88;;;11.10;99.90;;;;;;5060852;28;20063;-79
2022/11/03 03:49:01;;;;;;;8.82;1.83;;;11.10;99.90;;;;;;5048897;28;20053;-79
2022/11/03 03:51:32;;;;;;;7.18;1.75;;;11.10;99.90;;;;;;5054925;28;20418;-79
2022/11/03 03:54:04;;;;;;;6.80;1.70;;;11.10;99.90;;;;;;5054427;28;20022;-79
2022/11/03 03:56:42;;;;;;;6.18;1.65;;;11.00;99.90;;;;;;5054618;28;20021;-79
2022/11/03 03:59:08;;;;;;;5.28;1.65;;;11.00;99.90;;;;;;5053242;28;20024;-79
2022/11/03 04:01:38;;;;;;;6.50;1.58;;;11.00;99.90;;;;;;5054208;28;20025;-79
2022/11/03 04:04:07;;;;;;;4.97;1.55;;;11.00;99.90;;;;;;5049573;28;20468;-79
2022/11/03 04:06:36;;;;;;;8.00;1.63;;;11.00;99.90;;;;;;5042657;28;20063;-79
2022/11/03 04:09:05;;;;;;;9.32;1.75;;;11.00;99.90;;;;;;5067141;28;20017;-80
2022/11/03 04:23:07;;;;;;;7.22;1.63;;;11.10;99.90;;;;;;5065681;28;20079;-79
2022/11/03 04:25:46;;;;;;;9.32;1.83;;;11.20;99.90;;;;;;5053262;28;20033;-80
2022/11/03 04:28:15;;;;;;;9.23;1.60;;;11.20;99.90;;;;;;5054057;28;20138;-80
2022/11/03 04:30:44;;;;;;;10.80;2.17;;;11.30;99.90;;;;;;5052706;28;20109;-80
2022/11/03 04:33:15;;;;;;;6.07;2.20;;;11.40;99.90;;;;;;5052547;28;20042;-81
2022/11/03 04:35:43;;;;;;;7.20;1.80;;;11.40;99.90;;;;;;5062071;28;20027;-81
2022/11/03 04:38:15;;;;;;;6.43;1.58;;;11.50;99.90;;;;;;5070493;28;20025;-80
2022/11/03 04:40:52;;;;;;;5.40;1.58;;;11.50;99.90;;;;;;5052507;28;20528;-80
2022/11/03 04:43:19;;;;;;;7.00;1.67;;;11.50;99.90;;;;;;5070652;28;20469;-80
2022/11/03 04:45:47;;;;;;;8.02;3.42;;;11.60;99.90;;;;;;5055397;28;20047;-80
2022/11/03 04:48:23;;;;;;;9.13;1.73;;;11.60;99.90;;;;;;5052502;28;20044;-80
2022/11/03 04:50:53;;;;;;;7.03;1.73;;;11.60;99.90;;;;;;5053477;28;20538;-81
2022/11/03 04:53:29;;;;;;;8.80;1.65;;;11.60;99.90;;;;;;5058620;28;20029;-78
2022/11/03 04:55:58;;;;;;;7.93;1.75;;;11.60;99.90;;;;;;5068219;28;20092;-79
2022/11/03 04:58:36;;;;;;;7.10;1.50;;;11.60;99.90;;;;;;5072124;28;20063;-79
2022/11/03 05:01:14;;;;;;;8.63;2.15;;;11.60;99.90;;;;;;5067359;28;20021;-80
2022/11/03 05:03:45;;;;;;;6.20;1.75;;;11.60;99.90;;;;;;5066077;28;20119;-80
2022/11/03 05:06:36;;;;;;;8.23;1.80;;;11.70;99.90;;;;;;5068799;28;20028;-80
2022/11/03 05:09:17;;;;;;;7.95;1.98;;;11.70;99.90;;;;;;5058973;28;20048;-80
2022/11/03 05:11:47;;;;;;;8.40;2.40;;;11.70;99.90;;;;;;5053284;28;20515;-79
2022/11/03 05:14:21;;;;;;;5.30;1.75;;;11.80;99.90;;;;;;5056574;28;20021;-80
2022/11/03 05:16:49;;;;;;;5.30;1.77;;;11.80;99.90;;;;;;5069832;28;20024;-80
2022/11/03 05:19:20;;;;;;;11.77;2.17;;;11.80;99.90;;;;;;5076051;28;20012;-80
2022/11/03 05:21:51;;;;;;;11.05;2.17;;;11.80;99.90;;;;;;5063621;28;20479;-80
2022/11/03 05:24:20;;;;;;;5.93;1.50;;;11.90;99.90;;;;;;5068650;28;20036;-80
2022/11/03 05:26:49;;;;;;;7.38;2.03;;;11.90;99.90;;;;;;5070309;28;20040;-80
2022/11/03 05:29:25;;;;;;;7.45;1.67;;;11.90;99.90;;;;;;5057248;28;20104;-79
2022/11/03 05:31:58;;;;;;;5.97;1.85;;;11.90;99.90;;;;;;5069189;28;20112;-80
2022/11/03 05:34:37;;;;;;;8.77;1.83;;;11.90;99.90;;;;;;5058075;28;20025;-81
2022/11/03 05:37:15;;;;;;;10.25;2.00;;;11.90;99.90;;;;;;5062937;28;20020;-81
2022/11/03 05:39:47;;;;;;;5.57;1.50;;;11.90;99.90;;;;;;5061782;28;20377;-80
2022/11/03 05:42:44;;;;;;;7.30;1.73;;;11.90;99.90;;;;;;5057004;28;20021;-80
2022/11/03 05:45:32;;;;;;;11.38;2.25;;;11.90;99.90;;;;;;5062451;28;20017;-81
2022/11/03 05:48:10;;;;;;;7.70;1.75;;;12.00;99.90;;;;;;5071783;28;20048;-80
2022/11/03 05:50:44;;;;;;;6.32;1.55;;;12.00;99.90;;;;;;5055723;28;20033;-80
2022/11/03 05:53:34;;;;;;;;;;;12.00;99.90;;;;;;5057412;28;20020;-80
2022/11/03 05:56:06;;;;;;;5.72;1.67;;;12.00;99.90;;;;;;5055793;28;19912;-80
2022/11/03 05:58:37;;;;;;;8.57;2.15;;;12.00;99.90;;;;;;5055970;28;20064;-80
2022/11/03 06:01:18;;;;;;;10.35;2.35;;;12.00;99.90;;;;;;5056073;28;20021;-80
2022/11/03 06:03:45;;;;;;;7.53;1.85;;;12.00;99.90;;;;;;5068756;28;20060;-80
2022/11/03 06:06:37;;;;;;;5.25;1.75;;;12.00;99.90;;;;;;5062403;28;20079;-80
2022/11/03 06:09:18;;;;;;;7.78;1.95;;;12.10;99.90;;;;;;5064919;28;20531;-81
2022/11/03 06:11:48;;;;;;;8.98;2.10;;;12.10;99.90;;;;;;5055530;28;20120;-81
2022/11/03 06:14:19;;;;;;;11.50;2.28;;;12.10;99.90;;;;;;5056734;28;20010;-80
2022/11/03 06:16:54;;;;;;;6.13;1.88;;;12.10;99.90;;;;;;5068171;28;20028;-81
2022/11/03 06:19:30;;;;;;;6.93;1.95;;;12.20;99.90;;;;;;5047556;28;20029;-81
2022/11/03 06:22:13;;;;;;;8.65;2.05;;;12.20;99.90;;;;;;5063145;28;20020;-82
2022/11/03 06:24:39;;;;;;;10.50;2.08;;;12.20;99.90;;;;;;5062483;28;20032;-81
2022/11/03 06:27:12;;;;;;;9.20;2.35;;;12.10;99.90;;;;;;5059191;28;20081;-81
2022/11/03 06:29:41;;;;;;;6.65;1.10;;;12.20;99.90;;;;;;5062042;28;20520;-80
2022/11/03 06:32:18;;;;;;;6.05;1.40;;;12.20;99.90;;;;;;5054869;28;20108;-81
2022/11/03 06:34:58;;;;;;;5.45;1.42;;;12.10;99.90;;;;;;5068242;28;20024;-81
2022/11/03 06:37:32;;;;;;;10.10;2.20;;;12.00;99.90;;;;;;5044975;28;20082;-80
2022/11/03 06:40:14;;;;;;;5.70;1.83;;;12.00;99.90;;;;;;5072481;28;20027;-81
2022/11/03 06:42:49;;;;;;;9.38;2.05;;;12.00;99.90;;;;;;5062163;28;20036;-81
2022/11/03 06:45:28;;;;;;;6.90;2.38;;;12.00;99.90;;;;;;5055808;28;20029;-81
2022/11/03 06:47:57;;;;;;;6.57;1.50;;;12.00;99.90;;;;;;5057558;28;20047;-80
2022/11/03 06:50:40;;;;;;;9.45;2.00;;;12.00;99.90;;;;;;5075137;28;20475;-78
2022/11/03 06:53:12;;;;;;;7.70;2.20;;;11.90;99.90;;;;;;5085185;28;20024;-80
2022/11/03 06:55:42;;;;;;;5.55;1.73;;;11.90;99.90;;;;;;5073651;28;20055;-80
2022/11/03 06:58:29;;;;;;;11.80;2.92;;;11.90;99.90;;;;;;5068415;28;20029;-80
2022/11/03 07:01:17;;;;;;;8.15;1.58;;;11.90;99.90;;;;;;5073451;28;20036;-80
2022/11/03 07:03:50;;;;;;;9.00;2.00;;;11.90;99.90;;;;;;5073646;28;20375;-80
2022/11/03 07:06:27;;;;;;;7.00;1.85;;;12.00;99.90;;;;;;5059316;28;20458;-80
2022/11/03 07:09:18;;;;;;;7.75;2.15;;;12.00;99.90;;;;;;5050714;28;20025;-80
2022/11/03 07:11:51;;;;;;;7.88;2.15;;;12.00;99.90;;;;;;5072126;28;20021;-80
2022/11/03 07:14:27;;;;;;;11.18;2.70;;;12.10;99.90;;;;;;5085774;28;20027;-80
2022/11/03 07:17:08;;;;;;;11.88;2.33;;;12.10;99.90;;;;;;5062152;28;20120;-79
2022/11/03 07:19:45;;;;;;;9.15;2.55;;;12.20;99.90;;;;;;5065133;28;20020;-81
2022/11/03 07:22:25;;;;;;;7.35;2.67;;;12.30;99.90;;;;;;5072007;28;20008;-80
2022/11/03 07:25:03;;;;;;;9.07;2.00;;;12.30;99.90;;;;;;5077026;28;20074;-79
2022/11/03 07:27:42;;;;;;;8.70;2.13;;;12.40;99.90;;;;;;5054262;28;20391;-79
2022/11/03 07:30:34;;;;;;;10.93;2.10;;;12.40;99.90;;;;;;5057350;28;20040;-79
2022/11/03 07:33:40;;;;;;;6.57;2.03;;;12.40;99.90;;;;;;5071539;28;20380;-80
2022/11/03 07:36:24;;;;;;;10.35;2.10;;;12.40;99.90;;;;;;4980054;28;20149;-80
2022/11/03 07:39:00;;;;;;;5.63;1.98;;;12.40;99.90;;;;;;5048870;28;20029;-80
2022/11/03 07:41:50;;;;;;;7.90;1.60;;;12.40;99.90;;;;;;5052337;28;20028;-80
2022/11/03 07:44:22;;;;;;;11.48;2.58;;;12.40;99.90;;;;;;5052937;28;20025;-80
2022/11/03 07:46:56;;;;;;;11.23;2.67;;;12.40;99.90;;;;;;5060615;28;20040;-79
2022/11/03 07:49:27;;;;;;;8.45;1.88;;;12.40;99.90;;;;;;5056108;28;20524;-79
2022/11/03 07:52:00;;;;;;;6.72;2.45;;;12.50;99.90;;;;;;5060368;28;20047;-79
2022/11/03 07:54:31;;;;;;;7.97;2.20;;;12.50;99.90;;;;;;5064806;28;20021;-79
2022/11/03 07:57:15;;;;;;;7.00;2.63;;;12.50;99.90;;;;;;5072163;28;20025;-79
2022/11/03 07:59:57;;;;;;;5.53;1.35;;;12.50;99.90;;;;;;5064288;28;20071;-81
2022/11/03 08:02:29;;;;;;;8.52;2.28;;;12.60;99.90;;;;;;5053339;28;20017;-80
2022/11/03 08:04:55;;;;;;;5.88;1.80;;;12.60;99.90;;;;;;5052687;28;20515;-80
2022/11/03 08:07:30;;;;;;;9.48;2.28;;;12.70;99.90;;;;;;5055150;28;20381;-80
2022/11/03 08:09:59;;;;;;;4.63;1.55;;;12.70;99.90;;;;;;5054486;28;20389;-79
2022/11/03 08:12:26;;;;;;;5.57;1.67;;;12.80;99.90;;;;;;5065402;28;20032;-79
2022/11/03 08:14:55;;;;;;;4.68;1.52;;;12.80;99.90;;;;;;5053204;28;20031;-80
2022/11/03 08:17:28;;;;;;;7.38;2.05;;;12.80;99.90;;;;;;5069397;28;20771;-80
2022/11/03 08:19:57;;;;;;;7.47;2.07;;;12.80;99.90;;;;;;5053291;28;20095;-80
2022/11/03 08:22:24;;;;;;;8.73;2.00;;;12.80;99.90;;;;;;5070466;28;20025;-80
2022/11/03 08:24:54;;;;;;;5.45;1.75;;;12.80;99.90;;;;;;5057616;28;20052;-81
2022/11/03 08:27:26;;;;;;;7.10;1.90;;;12.70;99.90;;;;;;5051390;28;20044;-81
2022/11/03 08:30:20;;;;;;;8.32;2.00;;;12.70;99.90;;;;;;5050746;28;20035;-80
2022/11/03 08:33:00;;;;;;;7.32;2.30;;;12.70;99.90;;;;;;5052985;28;20029;-80
2022/11/03 08:35:32;;;;;;;6.53;2.05;;;12.70;99.90;;;;;;5058919;28;20487;-80
2022/11/03 08:38:11;;;;;;;6.60;1.80;;;12.80;99.90;;;;;;5069819;28;20153;-80
2022/11/03 08:40:47;;;;;;;9.93;2.92;;;12.80;99.90;;;;;;5062283;28;20036;-80
2022/11/03 08:43:22;;;;;;;7.15;2.22;;;12.80;99.90;;;;;;5066310;28;20017;-79
2022/11/03 08:45:52;;;;;;;4.38;1.80;;;12.80;99.90;;;;;;5063848;28;20040;-79
2022/11/03 08:48:21;;;;;;;6.93;1.90;;;12.80;99.90;;;;;;5074370;28;20119;-79
2022/11/03 08:50:57;;;;;;;7.65;1.80;;;12.80;99.90;;;;;;5055737;28;20384;-78
2022/11/03 08:53:26;;;;;;;7.15;1.95;;;12.80;99.90;;;;;;5093917;28;20023;-77
2022/11/03 08:55:58;;;;;;;6.65;2.10;;;12.90;99.90;;;;;;5101886;28;20050;-80
2022/11/03 08:58:30;;;;;;;8.05;1.83;;;13.00;99.90;;;;;;5069902;28;20034;-79
2022/11/03 09:00:56;;;;;;;5.93;1.77;;;13.00;99.90;;;;;;5076455;28;20024;-79
2022/11/03 09:03:22;;;;;;;8.18;2.38;;;13.10;99.90;;;;;;5055567;28;20028;-79
2022/11/03 09:05:48;;;;;;;8.40;2.17;;;13.10;99.90;;;;;;5054520;28;20059;-78
2022/11/03 09:08:15;;;;;;;6.82;1.95;;;13.20;99.90;;;;;;5065078;28;20016;-80
2022/11/03 09:10:41;;;;;;;10.18;2.15;;;13.20;99.90;;;;;;5059535;28;20024;-79
2022/11/03 09:13:10;;;;;;;8.90;2.17;;;13.30;99.90;;;;;;5087272;28;20383;-80
2022/11/03 09:15:39;;;;;;;6.38;1.63;;;13.30;99.90;;;;;;5054639;28;20036;-79
2022/11/03 09:18:05;;;;;;;6.38;2.08;;;13.40;99.90;;;;;;5066786;28;20020;-80
2022/11/03 09:20:31;;;;;;;6.93;1.90;;;13.40;99.90;;;;;;5067550;28;20412;-80
2022/11/03 09:22:57;;;;;;;8.52;2.15;;;13.40;99.90;;;;;;5065759;28;20475;-80
2022/11/03 09:25:24;;;;;;;8.00;2.15;;;13.40;99.90;;;;;;5069793;28;20101;-82
2022/11/03 09:27:50;;;;;;;5.30;1.60;;;13.50;99.90;;;;;;5078171;28;20029;-80
2022/11/03 09:30:19;;;;;;;7.20;1.98;;;13.50;99.90;;;;;;5053675;28;20017;-82
2022/11/03 09:32:46;;;;;;;6.38;2.15;;;13.50;99.90;;;;;;5057541;28;20019;-80
2022/11/03 09:35:13;;;;;;;5.20;2.15;;;13.60;99.90;;;;;;5049216;28;20029;-81
2022/11/03 09:37:40;;;;;;;5.22;1.88;;;13.60;99.90;;;;;;5084459;28;20016;-80
2022/11/03 09:40:11;;;;;;;7.68;1.70;;;13.70;99.90;;;;;;5088975;28;20026;-81
2022/11/03 09:42:53;;;;;;;8.35;1.70;;;14.00;99.90;;;;;;5065565;28;20020;-81
2022/11/03 09:45:21;;;;;;;4.57;1.48;;;14.30;99.90;;;;;;5068644;28;20024;-81
2022/11/03 09:47:48;;;;;;;7.07;1.85;;;14.60;99.90;;;;;;5087841;28;20044;-81
2022/11/03 09:50:18;;;;;;;8.27;2.67;;;14.80;99.90;;;;;;5083066;28;20085;-81
2022/11/03 09:53:06;;;;;;;7.97;1.90;;;15.00;99.90;;;;;;5060964;28;20039;-82
2022/11/03 09:55:33;;;;;;;8.85;2.28;;;15.00;99.90;;;;;;5056084;28;20068;-81
2022/11/03 09:58:11;;;;;;;6.47;2.15;;;15.00;99.90;;;;;;5062371;28;20024;-81
2022/11/03 10:00:37;;;;;;;6.05;1.88;;;14.90;99.90;;;;;;5063768;28;20802;-81
2022/11/03 10:03:11;;;;;;;8.85;1.65;;;14.80;99.90;;;;;;5069174;28;20029;-82
2022/11/03 10:05:38;;;;;;;9.73;2.30;;;14.80;99.90;;;;;;5080486;28;20025;-81
2022/11/03 10:08:22;;;;;;;6.38;1.65;;;14.80;99.90;;;;;;5063306;28;20028;-81
2022/11/03 10:10:48;;;;;;;;;;;14.70;99.90;;;;;;5082778;28;20024;-80
2022/11/03 10:13:29;;;;;;;8.70;1.70;;;14.70;99.90;;;;;;5074258;28;19905;-81
2022/11/03 10:16:05;;;;;;;5.13;1.85;;;14.60;99.90;;;;;;5087042;28;20035;-81
2022/11/03 10:18:41;;;;;;;6.95;1.90;;;14.50;99.90;;;;;;5068861;28;20009;-83
2022/11/03 10:21:29;;;;;;;8.48;2.05;;;14.50;99.90;;;;;;5058836;28;20111;-81
2022/11/03 10:24:11;;;;;;;5.03;1.85;;;14.40;99.90;;;;;;5082257;28;20383;-81
2022/11/03 10:26:53;;;;;;;7.65;2.22;;;14.30;99.90;;;;;;5063513;28;20035;-81
2022/11/03 10:29:27;;;;;;;7.65;1.73;;;14.30;99.90;;;;;;5063530;28;20492;-80
2022/11/03 10:31:57;;;;;;;6.88;1.73;;;14.30;99.90;;;;;;5079855;28;20488;-81
2022/11/03 10:34:40;;;;;;;6.25;1.75;;;14.30;99.90;;;;;;5060966;28;20055;-81
2022/11/03 10:37:39;;;;;;;7.45;1.60;;;14.20;99.90;;;;;;5093619;28;20119;-81
2022/11/03 10:40:35;;;;;;;6.15;1.83;;;14.20;99.90;;;;;;5020378;28;20032;-81
2022/11/03 10:43:01;;;;;;;7.00;1.80;;;14.20;99.90;;;;;;5081236;28;20027;-81
2022/11/03 10:45:35;;;;;;;7.68;1.98;;;14.10;99.90;;;;;;5064215;28;20024;-81
2022/11/03 10:48:05;;;;;;;7.03;1.70;;;14.20;99.90;;;;;;5061484;28;20044;-81
2022/11/03 10:50:33;;;;;;;7.68;1.80;;;14.20;99.90;;;;;;5061896;28;20016;-80
2022/11/03 10:53:02;;;;;;;4.75;1.65;;;14.20;99.90;;;;;;5069810;28;20059;-81
2022/11/03 10:55:30;;;;;;;5.43;1.80;;;14.10;99.90;;;;;;5090766;28;20027;-79
2022/11/03 10:57:58;;;;;;;6.13;1.92;;;14.20;99.90;;;;;;5081277;28;20088;-79
2022/11/03 11:00:24;;;;;;;6.60;1.70;;;14.20;99.90;;;;;;5082747;28;20059;-78
2022/11/03 11:02:59;;;;;;;10.73;2.60;;;14.10;99.90;;;;;;5066426;28;20039;-80
2022/11/03 11:05:25;;;;;;;7.40;2.05;;;14.20;99.90;;;;;;5065389;28;20115;-80
2022/11/03 11:07:53;;;;;;;6.72;2.03;;;14.20;99.90;;;;;;5076866;28;20356;-80
2022/11/03 11:10:27;;;;;;;4.95;1.48;;;14.20;99.90;;;;;;5060605;28;20032;-80
2022/11/03 11:13:24;;;;;;;6.85;1.85;;;14.30;99.90;;;;;;5067778;28;20404;-79
2022/11/03 11:16:01;;;;;;;7.22;1.80;;;14.40;99.90;;;;;;5070962;28;20076;-80
2022/11/03 11:18:29;;;;;;;6.57;1.95;;;14.50;99.90;;;;;;5065163;28;20063;-80
2022/11/03 11:21:25;;;;;;;4.38;1.73;;;14.60;99.90;;;;;;5063886;28;20025;-80
2022/11/03 11:23:51;;;;;;;7.30;2.00;;;15.00;99.90;;;;;;5060231;28;20530;-80
2022/11/03 11:26:35;;;;;;;5.82;1.77;;;15.70;99.90;;;;;;5063740;28;20040;-80
2022/11/03 11:29:10;;;;;;;8.25;1.60;;;15.90;99.90;;;;;;5062571;28;20111;-82
2022/11/03 11:31:36;;;;;;;4.90;1.70;;;15.80;99.90;;;;;;5058441;28;20024;-80
2022/11/03 11:34:08;;;;;;;4.13;1.83;;;15.70;99.90;;;;;;5057896;28;20127;-80
2022/11/03 11:36:40;;;;;;;6.85;1.65;;;15.60;99.90;;;;;;5082879;28;20028;-80
2022/11/03 11:39:26;;;;;;;5.78;1.73;;;15.50;99.90;;;;;;5075758;28;20052;-81
2022/11/03 11:42:16;;;;;;;3.85;1.48;;;15.40;99.90;;;;;;5057433;28;20608;-80
2022/11/03 11:44:45;;;;;;;5.47;1.50;;;15.30;99.90;;;;;;5053463;28;20025;-80
2022/11/03 11:47:38;;;;;;;5.53;1.85;;;15.30;99.90;;;;;;5058876;28;20028;-80
2022/11/03 11:50:10;;;;;;;5.97;1.77;;;15.50;99.90;;;;;;5081568;28;20042;-80
2022/11/03 11:53:09;;;;;;;5.32;1.48;;;15.70;99.90;;;;;;5062187;28;20040;-80
2022/11/03 11:55:56;;;;;;;9.77;2.03;;;16.10;99.90;;;;;;5075613;28;20439;-80
2022/11/03 11:58:49;;;;;;;6.68;1.65;;;16.30;99.90;;;;;;5061551;28;20352;-80
2022/11/03 12:01:35;;;;;;;5.90;1.63;;;16.20;99.90;;;;;;5065712;28;20088;-79
2022/11/03 12:04:05;;;;;;;5.25;1.40;;;16.30;99.90;;;;;;5062488;28;20391;-81
2022/11/03 12:06:36;;;;;;;5.40;1.42;;;16.70;99.90;;;;;;5066025;28;20470;-79
2022/11/03 12:09:05;;;;;;;6.38;1.73;;;16.90;99.90;;;;;;5056963;28;20052;-80
2022/11/03 12:11:54;;;;;;;7.32;1.85;;;16.80;99.90;;;;;;5082648;28;20032;-79
2022/11/03 12:14:36;;;;;;;5.50;1.30;;;16.60;99.90;;;;;;5060723;28;20033;-80
2022/11/03 12:17:18;;;;;;;4.68;1.50;;;16.60;99.90;;;;;;5051588;28;20040;-80
2022/11/03 12:19:45;;;;;;;5.43;1.63;;;16.80;99.90;;;;;;5051427;28;20054;-81
2022/11/03 12:22:25;;;;;;;5.22;1.35;;;16.80;99.90;;;;;;5071573;28;20029;-81
2022/11/03 12:24:53;;;;;;;6.00;1.80;;;16.80;99.90;;;;;;5059684;28;20031;-80
2022/11/03 12:27:29;;;;;;;5.07;1.67;;;16.70;99.90;;;;;;5051482;28;20354;-79
2022/11/03 12:30:04;;;;;;;6.85;1.63;;;16.60;99.90;;;;;;5054685;28;20052;-81
2022/11/03 12:32:30;;;;;;;5.80;2.03;;;16.50;99.90;;;;;;5070030;28;20051;-80
2022/11/03 12:34:58;;;;;;;3.65;1.30;;;16.40;99.90;;;;;;5063804;28;20020;-81
2022/11/03 12:37:24;;;;;;;4.80;1.35;;;16.40;99.90;;;;;;5065170;28;20024;-80
2022/11/03 12:39:52;;;;;;;3.70;1.40;;;16.40;99.90;;;;;;5063742;28;20409;-82
2022/11/03 12:42:18;;;;;;;6.53;1.65;;;16.50;99.90;;;;;;5059811;28;20028;-80
2022/11/03 12:44:47;;;;;;;4.43;1.52;;;16.50;99.90;;;;;;5062360;28;20777;-80
2022/11/03 12:47:13;;;;;;;3.75;1.38;;;16.50;99.90;;;;;;5087706;28;20032;-81
2022/11/03 12:49:40;;;;;;;3.45;1.17;;;16.50;99.90;;;;;;5063710;28;20056;-82
2022/11/03 12:52:07;;;;;;;5.40;1.58;;;16.50;99.90;;;;;;5061587;28;20052;-80
2022/11/03 12:54:34;;;;;;;6.50;1.77;;;16.50;99.90;;;;;;5065401;28;20024;-82
2022/11/03 12:57:00;;;;;;;4.53;1.40;;;16.60;99.90;;;;;;5074586;28;20016;-81
2022/11/03 12:59:29;;;;;;;5.03;1.35;;;16.70;99.90;;;;;;5078227;28;20068;-81
2022/11/03 13:01:55;;;;;;;5.05;1.27;;;16.80;99.90;;;;;;5064835;28;20047;-82
2022/11/03 13:04:22;;;;;;;4.90;1.42;;;16.70;99.90;;;;;;5080507;28;20337;-82
2022/11/03 13:06:48;;;;;;;5.78;1.73;;;16.60;99.90;;;;;;5064463;28;20060;-80
2022/11/03 13:09:14;;;;;;;3.67;1.35;;;16.50;99.90;;;;;;5059025;28;20036;-80
2022/11/03 13:14:33;;;;;;;3.88;1.10;;;16.60;99.90;;;;;;5069126;28;20052;-82
2022/11/03 13:17:02;;;;;;;4.68;1.38;;;16.60;99.90;;;;;;5064946;28;20033;-79
2022/11/03 13:19:28;;;;;;;2.65;1.00;;;16.90;99.90;;;;;;5066901;28;20196;-81
2022/11/03 13:21:54;;;;;;;3.47;1.10;;;17.10;99.90;;;;;;5058981;28;20497;-80
2022/11/03 13:24:21;;;;;;;4.28;1.48;;;17.10;99.90;;;;;;5069688;28;20036;-80
2022/11/03 13:26:47;;;;;;;5.90;1.20;;;17.30;99.90;;;;;;5068070;28;20098;-82
2022/11/03 13:29:13;;;;;;;4.50;1.30;;;18.00;99.90;;;;;;5056753;28;20036;-82
2022/11/03 13:31:39;;;;;;;5.68;1.75;;;18.80;99.90;;;;;;5072269;28;20044;-81
2022/11/03 13:34:05;;;;;;;4.55;1.10;;;18.80;99.90;;;;;;5064356;28;20039;-81
2022/11/03 13:36:31;;;;;;;5.80;1.20;;;18.40;99.90;;;;;;5059804;28;20383;-83
2022/11/03 13:38:57;;;;;;;4.65;1.08;;;18.00;99.90;;;;;;5080832;28;20031;-81
2022/11/03 13:41:24;;;;;;;4.82;1.13;;;17.80;99.90;;;;;;5071097;28;20051;-82
2022/11/03 13:43:51;;;;;;;3.35;1.13;;;17.60;99.90;;;;;;5079850;28;20020;-80